Time;durP1;ratioP1;P1;durP2;ratioP2;P2;SDS_P1;SDS_P2;PMS_P1;PMS_P2;Temp;Humidity;BMP_temperature;BMP_pressure;BME280_temperature;BME280_humidity;BME280_pressure;Samples;Min_cycle;Max_cycle;Signal;HPM_P1;HPM_P2
2024/04/26 07:51:31;;;;;;;3.10;1.40;;;;;;;11.04;80.66;98622.45;262773;1305;545811;-90
2024/04/26 07:57:33;;;;;;;1.70;1.20;;;;;;;11.69;74.81;98614.29;268247;1281;22572;-88
2024/04/26 08:03:35;;;;;;;1.50;1.30;;;;;;;12.25;74.23;98612.70;268708;1280;294570;-89
2024/04/26 08:09:37;;;;;;;2.00;1.10;;;;;;;12.63;72.63;98616.53;269470;1279;22580;-89
2024/04/26 08:15:40;;;;;;;1.60;1.00;;;;;;;12.93;72.64;98617.84;269511;1279;22585;-89
2024/04/26 08:21:41;;;;;;;2.20;1.10;;;;;;;13.26;72.02;98618.08;269131;1278;22693;-89
2024/04/26 08:27:43;;;;;;;2.50;1.00;;;;;;;13.33;71.08;98612.23;269040;1279;22559;-89
2024/04/26 08:33:46;;;;;;;1.70;1.10;;;;;;;13.16;68.40;98611.07;269084;1280;22569;-90
2024/04/26 08:39:47;;;;;;;1.10;0.90;;;;;;;12.98;65.06;98612.16;268660;1279;22568;-89
2024/04/26 08:45:53;;;;;;;1.40;0.90;;;;;;;13.19;65.27;98609.23;268818;1279;24227;-88
2024/04/26 08:51:57;;;;;;;2.60;0.90;;;;;;;13.78;63.93;98603.81;268609;1280;22642;-90
2024/04/26 08:58:03;;;;;;;2.80;1.00;;;;;;;14.20;63.78;98600.63;268743;1279;22560;-89
2024/04/26 09:04:06;;;;;;;4.30;1.00;;;;;;;14.10;63.75;98603.55;270929;1280;22521;-88
2024/04/26 09:10:07;;;;;;;1.00;0.70;;;;;;;14.67;62.75;98608.98;268939;1280;23772;-90
2024/04/26 09:16:09;;;;;;;0.90;0.70;;;;;;;15.06;58.73;98603.45;268694;1279;22546;-90
2024/04/26 09:22:11;;;;;;;0.60;0.50;;;;;;;15.05;52.96;98601.41;268893;1279;22904;-88
2024/04/26 09:28:14;;;;;;;0.60;0.60;;;;;;;15.44;53.83;98592.46;268531;1279;22756;-90
2024/04/26 09:34:17;;;;;;;1.90;0.90;;;;;;;15.13;53.81;98593.44;268637;1279;22686;-88
2024/04/26 09:40:19;;;;;;;2.10;0.70;;;;;;;14.35;52.51;98594.67;268747;1280;22595;-89
2024/04/26 09:46:26;;;;;;;2.10;0.50;;;;;;;14.05;52.84;98594.72;268732;1279;22556;-89
2024/04/26 09:52:28;;;;;;;2.00;0.80;;;;;;;13.91;52.33;98587.13;268124;1279;24216;-89
2024/04/26 09:58:30;;;;;;;1.90;0.70;;;;;;;14.02;51.84;98592.55;268637;1280;23901;-89
2024/04/26 10:04:55;;;;;;;3.40;0.90;;;;;;;13.92;51.14;98590.73;268273;1278;23753;-88
2024/04/26 10:11:26;;;;;;;2.30;1.00;;;;;;;13.96;51.85;98589.68;268562;1279;22908;-88
2024/04/26 10:17:30;;;;;;;2.10;1.10;;;;;;;13.78;51.57;98591.56;268974;1278;22575;-88
2024/04/26 10:23:54;;;;;;;1.70;0.80;;;;;;;13.58;51.84;98587.64;268455;1272;22582;-89
2024/04/26 10:29:56;;;;;;;2.10;0.90;;;;;;;13.42;52.15;98589.71;269734;1279;22571;-89
2024/04/26 10:36:06;;;;;;;1.70;1.10;;;;;;;13.26;53.51;98584.70;268722;1279;22552;-91
2024/04/26 10:42:08;;;;;;;2.50;0.90;;;;;;;13.31;55.27;98582.95;268720;1279;22560;-89
2024/04/26 10:48:16;;;;;;;3.20;1.10;;;;;;;13.39;53.86;98587.22;268616;1280;23344;-87
2024/04/26 10:54:17;;;;;;;1.90;1.20;;;;;;;13.39;52.53;98592.71;268300;1279;24270;-89
2024/04/26 11:00:19;;;;;;;1.80;1.20;;;;;;;13.48;52.86;98590.77;268559;1279;22525;-89
2024/04/26 11:06:32;;;;;;;1.60;0.90;;;;;;;13.75;52.81;98589.38;268445;1279;24833;-88
2024/04/26 11:12:52;;;;;;;1.80;1.10;;;;;;;13.87;51.12;98582.36;268806;1279;25853;-89
2024/04/26 11:18:54;;;;;;;3.00;1.40;;;;;;;14.16;50.54;98578.18;268766;1279;23352;-91
2024/04/26 11:24:58;;;;;;;1.70;1.10;;;;;;;14.71;50.80;98576.73;268922;1280;22590;-89
2024/04/26 11:30:59;;;;;;;2.00;1.00;;;;;;;15.03;50.51;98575.61;269094;1279;22549;-89
2024/04/26 11:37:05;;;;;;;2.20;1.20;;;;;;;15.03;50.19;98577.20;270840;1268;26661;-89
2024/04/26 11:43:08;;;;;;;1.90;1.20;;;;;;;14.96;48.63;98574.06;270396;1266;22577;-88
2024/04/26 11:49:10;;;;;;;1.80;1.00;;;;;;;15.08;48.22;98570.91;270561;1268;22525;-90
2024/04/26 11:55:18;;;;;;;1.60;0.90;;;;;;;15.89;48.68;98560.42;270754;1268;22559;-90
2024/04/26 12:01:20;;;;;;;2.10;1.10;;;;;;;16.34;48.08;98557.83;270817;1268;23185;-88
2024/04/26 12:07:22;;;;;;;2.10;1.10;;;;;;;16.57;47.29;98559.79;271003;1268;25070;-88
2024/04/26 12:13:24;;;;;;;2.00;0.80;;;;;;;16.43;46.70;98557.66;270895;1268;22575;-90
2024/04/26 12:19:25;;;;;;;1.20;1.00;;;;;;;16.09;45.08;98555.05;271094;1268;23565;-88
2024/04/26 12:25:27;;;;;;;1.90;0.80;;;;;;;15.61;44.75;98551.63;271437;1268;22559;-87
2024/04/26 12:31:30;;;;;;;1.20;0.80;;;;;;;15.36;41.50;98546.08;270749;1268;22539;-87
2024/04/26 12:37:32;;;;;;;1.40;1.00;;;;;;;15.39;41.32;98554.31;271019;1268;22547;-88
2024/04/26 12:43:35;;;;;;;1.70;0.80;;;;;;;15.25;41.39;98564.45;271283;1262;22601;-87
2024/04/26 12:49:37;;;;;;;3.80;0.90;;;;;;;15.11;42.54;98564.41;270893;1268;24223;-87
2024/04/26 12:55:39;;;;;;;1.40;0.80;;;;;;;15.15;42.67;98554.04;270766;1268;22593;-89
2024/04/26 13:01:42;;;;;;;0.70;0.70;;;;;;;15.23;42.89;98552.89;269850;1268;22495;-88
2024/04/26 13:07:45;;;;;;;2.30;0.70;;;;;;;15.46;42.00;98553.98;270756;1268;22561;-88
2024/04/26 13:14:00;;;;;;;1.00;0.70;;;;;;;15.81;40.98;98554.76;270665;1268;23214;-88
2024/04/26 13:20:03;;;;;;;0.80;0.60;;;;;;;16.30;41.58;98554.66;270604;1268;22524;-89
2024/04/26 13:26:05;;;;;;;1.20;0.70;;;;;;;16.67;40.43;98551.60;270617;1268;22601;-89
2024/04/26 13:32:07;;;;;;;1.10;0.60;;;;;;;16.52;39.30;98552.13;270438;1268;22732;-89
2024/04/26 13:38:09;;;;;;;0.60;0.60;;;;;;;16.40;40.20;98551.56;270421;1268;23708;-88
2024/04/26 13:44:12;;;;;;;1.50;1.00;;;;;;;16.17;40.46;98555.00;269884;1267;22716;-88
2024/04/26 13:50:14;;;;;;;1.80;0.70;;;;;;;15.85;39.88;98552.56;269891;1268;22539;-89
2024/04/26 13:56:17;;;;;;;1.50;0.50;;;;;;;15.64;39.64;98549.52;270121;1267;22532;-91
2024/04/26 14:02:22;;;;;;;1.10;0.60;;;;;;;15.51;40.70;98549.33;270120;1268;22573;-87
2024/04/26 14:08:26;;;;;;;1.90;0.80;;;;;;;15.36;41.21;98550.98;270392;1268;22525;-90
2024/04/26 14:14:28;;;;;;;1.70;0.70;;;;;;;15.26;41.94;98549.38;270824;1268;22769;-87
2024/04/26 14:20:30;;;;;;;7.10;0.90;;;;;;;15.25;42.45;98548.67;270871;1268;23330;-88
2024/04/26 14:26:32;;;;;;;6.00;1.00;;;;;;;15.35;42.57;98547.43;270850;1268;22548;-88
2024/04/26 14:32:36;;;;;;;2.50;0.60;;;;;;;15.43;41.82;98547.02;270560;1258;23594;-87
2024/04/26 14:38:37;;;;;;;1.00;0.70;;;;;;;15.46;41.63;98551.55;270449;1260;22567;-87
2024/04/26 14:44:42;;;;;;;3.00;0.80;;;;;;;15.39;41.13;98547.86;270646;1268;22554;-87
2024/04/26 14:50:45;;;;;;;1.50;0.80;;;;;;;15.28;41.24;98538.55;270401;1268;22633;-88
2024/04/26 14:56:47;;;;;;;0.90;0.70;;;;;;;15.32;42.68;98542.75;270898;1268;22525;-88
2024/04/26 15:02:52;;;;;;;1.10;0.70;;;;;;;15.41;42.37;98540.27;270545;1268;25392;-89
2024/04/26 15:08:54;;;;;;;0.90;0.60;;;;;;;15.67;41.23;98537.17;270773;1268;22560;-88
2024/04/26 15:14:56;;;;;;;2.30;0.70;;;;;;;15.76;40.02;98536.08;270951;1268;22620;-90
2024/04/26 15:20:58;;;;;;;1.90;0.80;;;;;;;15.74;40.11;98538.47;270794;1267;22657;-89
2024/04/26 15:27:00;;;;;;;1.70;0.70;;;;;;;15.49;39.89;98536.77;270799;1265;25161;-89
2024/04/26 15:33:02;;;;;;;1.80;0.80;;;;;;;15.20;39.91;98537.96;270574;1268;22691;-89
2024/04/26 15:39:10;;;;;;;2.00;0.90;;;;;;;14.93;39.97;98538.50;270645;1267;23724;-90
2024/04/26 15:45:12;;;;;;;4.50;0.90;;;;;;;14.64;40.44;98539.03;270163;1268;22580;-89
2024/04/26 15:51:14;;;;;;;2.00;1.10;;;;;;;14.44;40.63;98540.06;270652;1268;22547;-89
2024/04/26 15:57:16;;;;;;;1.70;1.20;;;;;;;14.31;40.78;98541.70;270767;1267;22526;-89
2024/04/26 16:03:18;;;;;;;1.70;1.20;;;;;;;14.17;41.28;98549.77;270199;1267;23843;-88
2024/04/26 16:09:20;;;;;;;2.70;1.30;;;;;;;14.05;41.85;98548.64;271004;1268;22557;-88
2024/04/26 16:15:22;;;;;;;3.10;1.30;;;;;;;14.02;41.90;98549.92;273419;1267;22268;-89
2024/04/26 16:21:23;;;;;;;7.90;3.30;;;;;;;14.03;42.68;98551.73;273443;1267;23643;-90
2024/04/26 16:34:17;;;;;;;2.90;1.80;;;;;;;14.04;43.26;98550.62;255180;1305;10001939;-87
2024/04/26 16:40:19;;;;;;;3.00;1.60;;;;;;;13.92;43.60;98553.55;270108;1280;22530;-86
2024/04/26 16:46:21;;;;;;;2.40;1.50;;;;;;;13.78;43.86;98558.33;269947;1279;161948;-86
2024/04/26 16:52:24;;;;;;;4.00;1.70;;;;;;;13.62;44.11;98566.54;271779;1278;22299;-87
2024/04/26 16:58:30;;;;;;;3.80;1.80;;;;;;;13.45;44.53;98572.95;271692;1279;23218;-86
2024/04/26 17:04:32;;;;;;;2.70;1.80;;;;;;;13.32;44.73;98572.66;271257;1279;22423;-86
2024/04/26 17:10:33;;;;;;;3.70;1.80;;;;;;;13.27;45.17;98576.46;270737;1278;22900;-87
2024/04/26 17:16:38;;;;;;;3.90;2.10;;;;;;;13.20;45.31;98578.54;271283;1279;22505;-86
2024/04/26 17:22:40;;;;;;;3.40;1.90;;;;;;;13.10;45.78;98586.99;269250;1279;22768;-87
2024/04/26 17:28:42;;;;;;;5.20;3.10;;;;;;;12.88;46.33;98593.13;269809;1278;23059;-87
2024/04/26 17:34:43;;;;;;;7.60;3.30;;;;;;;12.79;46.51;98593.33;271773;1278;22308;-86
2024/04/26 17:40:50;;;;;;;7.80;4.10;;;;;;;12.68;46.93;98592.65;271626;1279;22274;-86
2024/04/26 17:46:52;;;;;;;5.00;3.00;;;;;;;12.53;48.15;98593.48;271557;1279;22415;-87
2024/04/26 17:52:56;;;;;;;15.90;5.80;;;;;;;12.28;48.79;98597.02;271681;1279;22546;-87
2024/04/26 17:58:58;;;;;;;14.80;3.80;;;;;;;12.03;48.76;98606.52;271824;1279;22256;-87
2024/04/26 18:04:59;;;;;;;7.80;3.20;;;;;;;11.86;48.83;98613.30;272092;1276;22300;-86
2024/04/26 18:11:01;;;;;;;8.90;4.50;;;;;;;11.76;49.09;98619.95;272126;1276;22656;-87
2024/04/26 18:17:04;;;;;;;14.00;5.40;;;;;;;11.67;49.53;98632.77;272688;1272;22403;-87
2024/04/26 18:23:05;;;;;;;9.30;4.70;;;;;;;11.53;50.01;98642.29;272553;1272;22275;-86
2024/04/26 18:29:07;;;;;;;13.70;5.50;;;;;;;11.32;50.91;98649.77;272645;1271;23004;-86
2024/04/26 18:35:09;;;;;;;12.20;4.30;;;;;;;10.99;52.45;98657.79;272627;1273;22387;-87
2024/04/26 18:41:10;;;;;;;11.20;5.40;;;;;;;10.64;54.44;98657.94;272586;1272;22411;-87
2024/04/26 18:47:12;;;;;;;16.80;7.80;;;;;;;10.29;55.74;98665.38;272475;1272;22439;-86
2024/04/26 18:53:13;;;;;;;22.80;9.10;;;;;;;9.96;56.55;98673.08;272682;1272;22430;-86
2024/04/26 18:59:17;;;;;;;18.90;8.80;;;;;;;9.72;57.03;98680.36;272742;1272;22251;-85
2024/04/26 19:05:18;;;;;;;18.90;8.00;;;;;;;9.43;58.32;98682.80;272613;1273;22284;-87
2024/04/26 19:11:24;;;;;;;17.30;8.10;;;;;;;9.18;59.33;98683.15;272601;1271;22402;-86
2024/04/26 19:17:27;;;;;;;9.40;6.80;;;;;;;8.98;60.88;98686.81;272670;1272;22267;-86
2024/04/26 19:23:29;;;;;;;13.00;8.50;;;;;;;8.75;62.52;98690.49;272692;1272;22474;-87
2024/04/26 19:29:35;;;;;;;11.20;7.30;;;;;;;8.56;64.35;98694.52;272561;1272;23616;-87
2024/04/26 19:35:37;;;;;;;14.30;8.50;;;;;;;8.42;65.69;98700.06;272648;1273;22391;-87
2024/04/26 19:42:03;;;;;;;21.10;10.50;;;;;;;8.24;65.06;98705.70;272572;1257;22388;-86
2024/04/26 19:48:05;;;;;;;22.00;9.50;;;;;;;8.01;66.27;98708.73;271867;1272;23660;-87
2024/04/26 20:01:03;;;;;;;13.50;8.30;;;;;;;7.52;67.79;98707.58;273165;1279;22258;-86
2024/04/26 20:07:05;;;;;;;17.30;9.80;;;;;;;7.32;68.53;98712.35;273593;1267;22428;-86
2024/04/26 20:13:06;;;;;;;16.40;9.70;;;;;;;7.21;69.55;98711.72;273586;1267;22274;-87
2024/04/26 20:19:09;;;;;;;20.10;11.00;;;;;;;7.06;71.00;98716.17;273541;1267;22468;-87
2024/04/26 20:25:11;;;;;;;22.90;11.70;;;;;;;6.93;70.71;98719.00;274066;1275;22256;-86
2024/04/26 20:31:12;;;;;;;25.10;13.10;;;;;;;6.74;70.75;98719.84;273385;1267;22394;-87
2024/04/26 20:37:14;;;;;;;26.40;12.60;;;;;;;6.54;71.00;98719.15;273541;1267;23694;-88
2024/04/26 20:43:16;;;;;;;30.90;12.90;;;;;;;6.37;72.30;98720.48;271697;1267;22569;-85
2024/04/26 20:49:19;;;;;;;21.60;10.20;;;;;;;6.20;73.50;98723.13;272198;1267;24959;-88
2024/04/26 20:55:21;;;;;;;20.30;10.60;;;;;;;6.07;75.23;98732.98;272265;1267;25370;-88
2024/04/26 21:01:23;;;;;;;29.00;12.90;;;;;;;5.95;76.30;98734.08;271063;1267;22522;-87
2024/04/26 21:07:35;;;;;;;25.50;12.30;;;;;;;5.84;76.84;98739.30;272113;1269;22396;-88
2024/04/26 21:13:37;;;;;;;25.10;13.80;;;;;;;5.73;77.50;98741.80;273701;1267;22391;-87
2024/04/26 21:20:19;;;;;;;30.60;14.70;;;;;;;5.60;77.23;98746.09;274109;1275;22421;-86
2024/04/26 21:26:25;;;;;;;33.60;14.00;;;;;;;5.47;77.62;98746.42;273686;1269;22255;-86
2024/04/26 21:32:27;;;;;;;25.10;13.30;;;;;;;5.34;78.67;98750.89;273657;1267;22284;-86
2024/04/26 21:38:49;;;;;;;31.10;14.60;;;;;;;5.24;79.59;98754.10;274004;1272;22571;-87
2024/04/26 21:44:50;;;;;;;25.10;14.00;;;;;;;5.11;80.34;98757.67;270633;1267;22465;-87
2024/04/26 21:51:21;;;;;;;30.00;16.40;;;;;;;5.02;80.73;98764.16;273740;1267;23767;-87
2024/04/26 21:57:22;;;;;;;37.80;17.60;;;;;;;4.90;80.79;98766.30;273699;1267;22236;-87
2024/04/26 22:03:25;;;;;;;40.50;17.40;;;;;;;4.74;80.70;98766.84;273599;1267;22563;-87
2024/04/26 22:09:47;;;;;;;31.30;17.50;;;;;;;4.65;81.71;98770.88;273797;1266;23207;-87
2024/04/26 22:15:48;;;;;;;31.30;18.10;;;;;;;4.58;82.25;98778.11;273914;1267;22866;-87
2024/04/26 22:21:51;;;;;;;36.00;19.70;;;;;;;4.55;82.99;98781.58;273720;1267;22607;-87
2024/04/26 22:28:03;;;;;;;32.90;16.70;;;;;;;4.44;82.99;98783.95;273592;1267;22491;-88
2024/04/26 22:34:14;;;;;;;36.20;20.60;;;;;;;4.32;83.56;98777.83;272513;1267;22575;-87
2024/04/26 22:40:15;;;;;;;37.10;20.50;;;;;;;4.17;83.88;98783.70;271490;1267;23490;-87
2024/04/26 22:46:27;;;;;;;37.30;20.40;;;;;;;4.11;84.56;98778.85;274070;1274;22233;-87
2024/04/26 22:52:28;;;;;;;37.30;20.80;;;;;;;4.03;85.17;98778.43;272814;1267;22258;-88
2024/04/26 22:58:34;;;;;;;36.00;19.60;;;;;;;3.99;85.58;98781.05;273890;1270;22258;-88
2024/04/26 23:04:36;;;;;;;33.20;19.00;;;;;;;3.96;86.36;98783.60;271519;1267;22287;-87
2024/04/26 23:10:37;;;;;;;27.10;17.00;;;;;;;3.99;87.11;98791.83;271256;1254;23152;-87
2024/04/26 23:16:39;;;;;;;30.10;18.60;;;;;;;3.98;87.33;98792.95;271117;1267;23172;-87
2024/04/26 23:22:43;;;;;;;47.10;25.90;;;;;;;3.96;88.01;98790.02;272262;1267;22660;-87
2024/04/26 23:28:46;;;;;;;38.00;22.80;;;;;;;3.96;88.47;98793.95;271768;1267;23406;-86
2024/04/26 23:34:47;;;;;;;41.40;23.00;;;;;;;4.03;89.35;98793.75;273703;1267;23658;-88
2024/04/26 23:40:49;;;;;;;36.30;21.20;;;;;;;4.10;89.50;98791.73;273753;1267;22264;-88
2024/04/26 23:46:51;;;;;;;42.20;24.40;;;;;;;4.16;90.18;98794.65;273681;1267;22570;-87
2024/04/26 23:52:52;;;;;;;30.80;20.50;;;;;;;4.25;91.14;98796.64;273074;1266;22371;-87
2024/04/26 23:59:03;;;;;;;37.20;20.30;;;;;;;4.34;91.56;98802.20;271507;1267;22541;-87
